Baker Lake Airport
CYBK : now visible

Airfield :











YOU CAN JOIN US ON...

 
LOGIN :

Register | Disclaimer

   EN    FR    IT 

 









Legend :    VFR   Marginal VFR   IFR   Intensive IFR   Very Intensive IFR
Visi :
Ceiling :
>= 8 km
>= 3000ft
5 to 8 km
1000 to 3000 ft
1500m to 5 km
500 to 1000 ft
800 to 1500m
200 to 500 ft
< 800m
< 200 ft
Symbols :   Thunderstorms  Fog  Heavy snow  Heavy precipitations  Wind > 20 kt






- Airport Elevation : 59 ft
- IATA code : YBK


CYBK - Baker Lake

CURRENT METAR :
  • 150800Z 29005KT 160V300 15SM SKC M32/M36 A2970 RMK SLP062

EXPIRED METARs :
  • 150700Z 30007G15KT 200V350 15SM SKC M30/M35 A2969 RMK SLP058
  • 150600Z 29007KT 15SM SKC M30/M34 A2969 RMK SLP058

TAF TAF CYBK
Valid from the 15 at 06:00 until the 15 at 18:00 UTC


150538Z 1506/1518 30012KT P6SM SKC
TEMPO 1506/1518 5SM IC
BECMG 1510/1512 30008KT RMK NXT FCST BY 151200Z



MET'MAP, your aeronautical weather chart ! - Copyright ORBIFLY December 2007 - Disclaimer

ORBIFLY MET'MAP TEAM :

Programming & Development : Alexandra Zaïnal
Concept & original design : Baudouin d'Aumeries
Assistance for programming : Marc-Olivier Méhu
Technical & hardware support : Manuel Goepfert

Contact : metmap@orbifly.com




SOURCES & CREDITS :

   NOAA       Earth
Advisory